Time;durP1;ratioP1;P1;durP2;ratioP2;P2;SDS_P1;SDS_P2;PMS_P1;PMS_P2;Temp;Humidity;BMP_temperature;BMP_pressure;BME280_temperature;BME280_humidity;BME280_pressure;Samples;Min_cycle;Max_cycle;Signal;HPM_P1;HPM_P2
2023/02/09 00:02:02;;;;;;;14.13;2.55;;;;;;;;;;5088099;28;20044;-75
2023/02/09 00:04:34;;;;;;;5.97;1.98;;;;;;;;;;5086347;28;20503;-75
2023/02/09 00:07:04;;;;;;;5.30;1.75;;;;;;;;;;5088008;28;20048;-75
2023/02/09 00:09:34;;;;;;;3.28;1.55;;;;;;;;;;5087300;28;20217;-75
2023/02/09 00:14:55;;;;;;;10.13;1.73;;;;;;;;;;5087350;28;20407;-75
2023/02/09 00:17:25;;;;;;;6.90;1.73;;;;;;;;;;5086488;28;20052;-76
2023/02/09 00:19:55;;;;;;;4.82;1.52;;;;;;;;;;5087417;28;20052;-75
2023/02/09 00:22:26;;;;;;;5.00;1.83;;;;;;;;;;5087396;28;20055;-75
2023/02/09 00:24:57;;;;;;;4.70;1.98;;;;;;;;;;5086897;28;20059;-75
2023/02/09 00:27:26;;;;;;;7.28;1.92;;;;;;;;;;5087291;28;20040;-75
2023/02/09 00:29:58;;;;;;;6.78;2.17;;;;;;;;;;5086929;28;20518;-74
2023/02/09 00:32:31;;;;;;;5.47;2.00;;;;;;;;;;5068320;28;20044;-75
2023/02/09 00:37:56;;;;;;;;;;;;;;;;;;5066310;28;20533;-75
2023/02/09 00:40:28;;;;;;;8.88;2.55;;;;;;;;;;5086986;28;19972;-75
2023/02/09 00:43:10;;;;;;;9.10;2.60;;;;;;;;;;5068199;28;20052;-75
2023/02/09 00:45:41;;;;;;;7.95;2.78;;;;;;;;;;5064917;28;20064;-75
2023/02/09 00:48:12;;;;;;;7.43;2.60;;;;;;;;;;5066525;28;20094;-74
2023/02/09 00:50:42;;;;;;;8.43;3.15;;;;;;;;;;5064597;28;20682;-74
2023/02/09 00:53:15;;;;;;;9.35;2.90;;;;;;;;;;5065259;28;20064;-74
2023/02/09 00:55:49;;;;;;;13.55;3.60;;;;;;;;;;5065656;28;20047;-75
2023/02/09 00:58:21;;;;;;;15.88;2.78;;;;;;;;;;5065990;28;20049;-75
2023/02/09 01:00:52;;;;;;;13.40;3.20;;;;;;;;;;5065544;28;20040;-74
2023/02/09 01:03:22;;;;;;;12.23;3.10;;;;;;;;;;5066084;28;20049;-74
2023/02/09 01:06:15;;;;;;;11.73;3.15;;;;;;;;;;5021346;28;20448;-74
2023/02/09 01:08:46;;;;;;;12.60;3.30;;;;;;;;;;5007174;28;20639;-75
2023/02/09 01:11:16;;;;;;;13.63;3.30;;;;;;;;;;5023130;28;20053;-75
2023/02/09 01:13:48;;;;;;;11.48;2.95;;;;;;;;;;5005412;28;20050;-75
2023/02/09 01:16:19;;;;;;;7.03;3.67;;;;;;;;;;5020721;28;20448;-76
2023/02/09 01:18:52;;;;;;;10.68;3.58;;;;;;;;;;5022868;28;20057;-75
2023/02/09 01:21:22;;;;;;;10.50;3.33;;;;;;;;;;5005519;28;20064;-74
2023/02/09 01:23:54;;;;;;;11.98;3.40;;;;;;;;;;5023730;28;20065;-74
2023/02/09 01:26:24;;;;;;;8.65;3.55;;;;;;;;;;5023673;28;20080;-74
2023/02/09 01:28:55;;;;;;;9.88;3.05;;;;;;;;;;5054183;28;20053;-74
2023/02/09 01:31:28;;;;;;;11.02;3.60;;;;;;;;;;5066711;28;20040;-74
2023/02/09 01:34:01;;;;;;;8.70;3.13;;;;;;;;;;5067012;28;20045;-76
2023/02/09 01:36:33;;;;;;;3.85;2.95;;;;;;;;;;5066180;28;20064;-75
2023/02/09 01:39:04;;;;;;;10.13;3.42;;;;;;;;;;5066025;28;20055;-76
2023/02/09 01:41:35;;;;;;;12.10;3.67;;;;;;;;;;5066432;28;20048;-75
2023/02/09 01:44:28;;;;;;;8.05;3.33;;;;;;;;;;5066603;28;20045;-75
2023/02/09 01:46:59;;;;;;;8.27;3.08;;;;;;;;;;5036507;28;20060;-76
2023/02/09 01:49:31;;;;;;;9.45;3.13;;;;;;;;;;5066352;28;20083;-76
2023/02/09 01:52:20;;;;;;;7.72;3.55;;;;;;;;;;5065752;28;20047;-76
2023/02/09 01:55:07;;;;;;;7.65;3.35;;;;;;;;;;5063816;28;20049;-75
2023/02/09 01:57:43;;;;;;;6.35;3.47;;;;;;;;;;5066411;28;20044;-75
2023/02/09 02:00:17;;;;;;;7.03;3.10;;;;;;;;;;5065194;28;20055;-75
2023/02/09 02:02:53;;;;;;;10.45;3.28;;;;;;;;;;5064696;28;20052;-74
2023/02/09 02:05:28;;;;;;;5.43;3.75;;;;;;;;;;5066540;28;20056;-75
2023/02/09 02:08:15;;;;;;;6.03;3.15;;;;;;;;;;5067552;28;20036;-75
2023/02/09 02:10:46;;;;;;;8.93;3.40;;;;;;;;;;5069626;28;20052;-75
2023/02/09 02:13:16;;;;;;;5.90;3.20;;;;;;;;;;5068533;28;20410;-76
2023/02/09 02:16:13;;;;;;;5.57;3.13;;;;;;;;;;5069485;28;20048;-76
2023/02/09 02:19:20;;;;;;;7.43;3.47;;;;;;;;;;5067308;28;20053;-74
2023/02/09 02:21:56;;;;;;;9.50;2.90;;;;;;;;;;5069215;28;20056;-75
2023/02/09 02:24:46;;;;;;;7.57;3.45;;;;;;;;;;5069157;28;20044;-75
2023/02/09 02:27:51;;;;;;;5.55;3.38;;;;;;;;;;5069923;28;20051;-75
2023/02/09 02:30:46;;;;;;;5.72;2.92;;;;;;;;;;5062200;28;20075;-76
2023/02/09 02:33:23;;;;;;;5.30;3.13;;;;;;;;;;5069115;28;20056;-76
2023/02/09 02:36:04;;;;;;;8.50;3.30;;;;;;;;;;5069020;28;20048;-75
2023/02/09 02:39:04;;;;;;;8.48;3.30;;;;;;;;;;5068814;28;20508;-76
2023/02/09 02:44:30;;;;;;;6.25;3.28;;;;;;;;;;5069009;28;20044;-75
2023/02/09 02:47:04;;;;;;;6.28;3.15;;;;;;;;;;5085502;28;20044;-75
2023/02/09 02:49:57;;;;;;;4.65;3.10;;;;;;;;;;5089358;28;20059;-75
2023/02/09 02:52:28;;;;;;;5.60;3.08;;;;;;;;;;5066563;28;20059;-75
2023/02/09 02:55:09;;;;;;;8.07;3.13;;;;;;;;;;5089062;28;20048;-75
2023/02/09 02:57:43;;;;;;;8.88;3.10;;;;;;;;;;5088252;28;20051;-75
2023/02/09 03:00:24;;;;;;;6.28;3.35;;;;;;;;;;5089041;28;20047;-75
2023/02/09 03:02:59;;;;;;;5.28;3.17;;;;;;;;;;5088560;28;20044;-75
2023/02/09 03:05:30;;;;;;;;;;;;;;;;;;5089530;28;20051;-75
2023/02/09 03:08:01;;;;;;;8.15;3.30;;;;;;;;;;5088815;28;19927;-75
2023/02/09 03:10:37;;;;;;;5.90;3.40;;;;;;;;;;5070311;28;20060;-75
2023/02/09 03:13:35;;;;;;;8.93;3.60;;;;;;;;;;5088731;28;20051;-75
2023/02/09 03:16:46;;;;;;;15.25;4.03;;;;;;;;;;5088933;28;20044;-75
2023/02/09 03:19:16;;;;;;;10.43;3.80;;;;;;;;;;5005605;28;20088;-76
2023/02/09 03:21:55;;;;;;;11.18;3.97;;;;;;;;;;5078337;28;20060;-76
2023/02/09 03:24:36;;;;;;;6.53;3.70;;;;;;;;;;5087878;28;20048;-75
2023/02/09 03:27:38;;;;;;;6.30;3.88;;;;;;;;;;5088657;28;20059;-75
2023/02/09 03:30:12;;;;;;;11.82;3.85;;;;;;;;;;5074637;28;20407;-75
2023/02/09 03:32:46;;;;;;;7.80;3.90;;;;;;;;;;5088139;28;20052;-75
2023/02/09 03:35:19;;;;;;;6.35;3.47;;;;;;;;;;5069073;28;20495;-75
2023/02/09 03:37:50;;;;;;;9.73;4.05;;;;;;;;;;5088146;28;20521;-75
2023/02/09 03:40:20;;;;;;;7.15;3.97;;;;;;;;;;5070769;28;20048;-74
2023/02/09 03:42:50;;;;;;;9.75;4.03;;;;;;;;;;5088497;28;20047;-76
2023/02/09 03:45:20;;;;;;;7.90;4.05;;;;;;;;;;5087809;28;20064;-75
2023/02/09 03:47:51;;;;;;;8.60;3.95;;;;;;;;;;5088252;28;20040;-74
2023/02/09 03:50:21;;;;;;;9.52;4.00;;;;;;;;;;5088017;28;20051;-75
2023/02/09 03:52:54;;;;;;;8.20;4.00;;;;;;;;;;5087406;28;20051;-76
2023/02/09 03:55:35;;;;;;;;;;;;;;;;;;;;;
2023/02/09 03:58:05;;;;;;;;;;;;;;;;;;5085152;28;20056;-75
2023/02/09 04:00:36;;;;;;;6.32;4.13;;;;;;;;;;5068985;28;19930;-74
2023/02/09 04:03:09;;;;;;;10.85;4.18;;;;;;;;;;5088019;28;20063;-75
2023/02/09 04:05:40;;;;;;;9.00;4.40;;;;;;;;;;5087205;28;20494;-75
2023/02/09 04:08:11;;;;;;;9.77;3.88;;;;;;;;;;5087960;28;20052;-75
2023/02/09 04:10:42;;;;;;;13.48;4.70;;;;;;;;;;5088218;28;20474;-75
2023/02/09 04:13:12;;;;;;;7.68;4.00;;;;;;;;;;5087306;28;20491;-75
2023/02/09 04:15:42;;;;;;;6.82;3.90;;;;;;;;;;5087465;28;20053;-75
2023/02/09 04:18:15;;;;;;;7.05;3.78;;;;;;;;;;5087855;28;20051;-75
2023/02/09 04:20:47;;;;;;;8.23;4.63;;;;;;;;;;5069603;28;20052;-75
2023/02/09 04:23:18;;;;;;;7.15;4.03;;;;;;;;;;5068480;28;20052;-75
2023/02/09 04:25:48;;;;;;;8.85;4.35;;;;;;;;;;5088035;28;20060;-76
2023/02/09 04:28:20;;;;;;;8.93;4.57;;;;;;;;;;5069680;28;20356;-75
2023/02/09 04:30:56;;;;;;;5.72;4.00;;;;;;;;;;5068305;28;20059;-75
2023/02/09 04:33:26;;;;;;;10.45;3.80;;;;;;;;;;5068048;28;20056;-75
2023/02/09 04:35:56;;;;;;;8.00;4.15;;;;;;;;;;5088025;28;20047;-76
2023/02/09 04:38:28;;;;;;;6.32;4.43;;;;;;;;;;5087516;28;20048;-75
2023/02/09 04:41:01;;;;;;;5.78;3.85;;;;;;;;;;5087068;28;20158;-76
2023/02/09 04:43:32;;;;;;;6.95;3.85;;;;;;;;;;5086645;28;20036;-75
2023/02/09 04:46:02;;;;;;;6.18;3.72;;;;;;;;;;5086757;28;20052;-75
2023/02/09 04:48:34;;;;;;;8.82;4.00;;;;;;;;;;5087469;28;20044;-75
2023/02/09 04:51:05;;;;;;;8.25;3.60;;;;;;;;;;5087100;28;20050;-76
2023/02/09 04:53:36;;;;;;;6.68;3.72;;;;;;;;;;5087114;28;20059;-75
2023/02/09 04:56:06;;;;;;;9.50;4.00;;;;;;;;;;5087206;28;20051;-75
2023/02/09 05:01:39;;;;;;;8.30;3.58;;;;;;;;;;5087130;28;20427;-76
2023/02/09 05:04:10;;;;;;;4.38;3.25;;;;;;;;;;5087017;28;20059;-75
2023/02/09 05:06:50;;;;;;;6.35;3.85;;;;;;;;;;5086708;28;20047;-76
2023/02/09 05:09:39;;;;;;;;;;;;;;;;;;;;;
2023/02/09 05:12:09;;;;;;;8.77;3.53;;;;;;;;;;5084761;28;20063;-76
2023/02/09 05:14:42;;;;;;;8.50;4.03;;;;;;;;;;5068682;28;20056;-75
2023/02/09 05:17:12;;;;;;;5.97;3.80;;;;;;;;;;5068194;28;20060;-76
2023/02/09 05:19:42;;;;;;;7.50;3.88;;;;;;;;;;5068136;28;20056;-76
2023/02/09 05:22:13;;;;;;;9.50;3.58;;;;;;;;;;5086654;28;20048;-75
2023/02/09 05:24:43;;;;;;;8.55;3.53;;;;;;;;;;5086945;28;20047;-76
2023/02/09 05:27:13;;;;;;;9.68;3.92;;;;;;;;;;5086030;28;20044;-75
2023/02/09 05:29:44;;;;;;;5.25;3.45;;;;;;;;;;5086114;28;20044;-75
2023/02/09 05:32:14;;;;;;;4.25;3.75;;;;;;;;;;5086701;28;20044;-75
2023/02/09 05:34:45;;;;;;;6.13;3.85;;;;;;;;;;5086647;28;20482;-75
2023/02/09 05:37:16;;;;;;;7.80;3.70;;;;;;;;;;5086198;28;20044;-75
2023/02/09 05:39:49;;;;;;;6.95;3.63;;;;;;;;;;5086296;28;20048;-76
2023/02/09 05:42:20;;;;;;;7.40;3.95;;;;;;;;;;5087101;28;20052;-76
2023/02/09 05:44:51;;;;;;;7.68;3.85;;;;;;;;;;5090471;28;20824;-75
2023/02/09 05:47:23;;;;;;;5.97;3.50;;;;;;;;;;5090563;28;20048;-76
2023/02/09 05:49:54;;;;;;;12.23;3.80;;;;;;;;;;5090395;28;20055;-74
2023/02/09 05:52:25;;;;;;;7.07;3.55;;;;;;;;;;5090572;28;20048;-74
2023/02/09 05:54:58;;;;;;;4.85;3.78;;;;;;;;;;5090399;28;20058;-75
2023/02/09 05:57:42;;;;;;;4.93;3.22;;;;;;;;;;5073865;28;20418;-76
2023/02/09 06:00:28;;;;;;;12.13;4.10;;;;;;;;;;5090308;28;20077;-75
2023/02/09 06:02:58;;;;;;;7.10;3.55;;;;;;;;;;5090093;28;20044;-77
2023/02/09 06:05:29;;;;;;;6.28;3.50;;;;;;;;;;5072110;28;20584;-76
2023/02/09 06:07:59;;;;;;;8.50;3.78;;;;;;;;;;5089847;28;20040;-77
2023/02/09 06:10:30;;;;;;;7.45;3.63;;;;;;;;;;5090211;28;20048;-76
2023/02/09 06:13:00;;;;;;;10.00;4.05;;;;;;;;;;5089317;28;20044;-74
2023/02/09 06:15:31;;;;;;;7.82;3.67;;;;;;;;;;5090092;28;20044;-76
2023/02/09 06:18:02;;;;;;;6.78;3.50;;;;;;;;;;5089420;28;20043;-75
2023/02/09 06:20:38;;;;;;;8.63;3.70;;;;;;;;;;5089665;28;20055;-75
2023/02/09 06:23:08;;;;;;;11.63;3.40;;;;;;;;;;5089543;28;20047;-76
2023/02/09 06:25:39;;;;;;;8.10;3.35;;;;;;;;;;5089942;28;20040;-76
2023/02/09 06:28:10;;;;;;;10.35;3.47;;;;;;;;;;5089976;28;20059;-75
2023/02/09 06:30:41;;;;;;;8.18;3.38;;;;;;;;;;5089396;28;20075;-75
2023/02/09 06:33:17;;;;;;;6.35;2.90;;;;;;;;;;5089654;28;20055;-75
2023/02/09 06:35:47;;;;;;;9.93;3.10;;;;;;;;;;5089526;28;20055;-76
2023/02/09 06:38:21;;;;;;;7.50;3.17;;;;;;;;;;5089711;28;20044;-77
2023/02/09 06:41:03;;;;;;;6.68;3.25;;;;;;;;;;5089507;28;20410;-75
2023/02/09 06:43:49;;;;;;;;;;;;;;;;;;;;;
2023/02/09 06:46:20;;;;;;;9.95;2.92;;;;;;;;;;5089333;28;20434;-74
2023/02/09 06:48:52;;;;;;;8.68;2.92;;;;;;;;;;5070957;28;20056;-75
2023/02/09 06:51:23;;;;;;;12.60;3.00;;;;;;;;;;5089022;28;20048;-76
2023/02/09 06:53:54;;;;;;;6.60;2.78;;;;;;;;;;5088492;28;20052;-75
2023/02/09 06:56:29;;;;;;;8.52;2.65;;;;;;;;;;5088827;28;20047;-75
2023/02/09 06:59:01;;;;;;;6.35;3.03;;;;;;;;;;5089611;28;20040;-75
2023/02/09 07:01:31;;;;;;;6.53;2.97;;;;;;;;;;5088627;28;20056;-74
2023/02/09 07:04:01;;;;;;;8.80;2.92;;;;;;;;;;5071305;28;20506;-76
2023/02/09 07:06:32;;;;;;;8.30;2.65;;;;;;;;;;5070808;28;20048;-75
2023/02/09 07:09:04;;;;;;;5.78;2.65;;;;;;;;;;5089035;28;20048;-77
2023/02/09 07:11:35;;;;;;;9.93;2.85;;;;;;;;;;5088551;28;20067;-77
2023/02/09 07:14:26;;;;;;;4.50;2.45;;;;;;;;;;5077864;28;20684;-75
2023/02/09 07:16:56;;;;;;;10.63;3.47;;;;;;;;;;5088685;28;20399;-76
2023/02/09 07:19:27;;;;;;;12.40;3.33;;;;;;;;;;5070901;28;20410;-74
2023/02/09 07:21:57;;;;;;;13.30;3.40;;;;;;;;;;5088592;28;20052;-76
2023/02/09 07:24:27;;;;;;;7.05;3.22;;;;;;;;;;5088556;28;20429;-76
2023/02/09 07:26:58;;;;;;;7.88;3.55;;;;;;;;;;5088449;28;20377;-76
2023/02/09 07:29:27;;;;;;;9.77;3.55;;;;;;;;;;5089059;28;20040;-75
2023/02/09 07:31:58;;;;;;;8.13;3.13;;;;;;;;;;5087879;28;20061;-75
2023/02/09 07:34:29;;;;;;;10.32;3.72;;;;;;;;;;5088408;28;20048;-76
2023/02/09 07:37:00;;;;;;;8.60;3.50;;;;;;;;;;5088385;28;20055;-76
2023/02/09 07:39:31;;;;;;;9.85;3.22;;;;;;;;;;5088816;28;20051;-74
2023/02/09 07:42:02;;;;;;;10.88;3.35;;;;;;;;;;5088541;28;20052;-76
2023/02/09 07:44:50;;;;;;;9.18;3.33;;;;;;;;;;5069525;28;20407;-77
2023/02/09 07:47:20;;;;;;;8.80;3.88;;;;;;;;;;5088150;28;20066;-75
2023/02/09 07:50:10;;;;;;;5.47;3.35;;;;;;;;;;5008096;28;20091;-76
2023/02/09 07:52:55;;;;;;;10.98;3.53;;;;;;;;;;5025718;28;20072;-76
2023/02/09 07:55:26;;;;;;;12.52;4.03;;;;;;;;;;5025695;28;20539;-77
2023/02/09 07:57:57;;;;;;;7.93;3.63;;;;;;;;;;5025144;28;20054;-76
2023/02/09 08:00:27;;;;;;;11.25;4.00;;;;;;;;;;5034434;28;20060;-77
2023/02/09 08:02:59;;;;;;;7.15;3.83;;;;;;;;;;5088081;28;20407;-75
2023/02/09 08:05:49;;;;;;;8.43;3.60;;;;;;;;;;5087583;28;20055;-76
2023/02/09 08:08:20;;;;;;;10.88;3.85;;;;;;;;;;5087685;28;20085;-77
2023/02/09 08:10:55;;;;;;;6.13;3.42;;;;;;;;;;5087529;28;20056;-75
2023/02/09 08:13:40;;;;;;;9.02;3.95;;;;;;;;;;5067098;28;20529;-75
2023/02/09 08:16:15;;;;;;;6.82;3.83;;;;;;;;;;5087562;28;20044;-75
2023/02/09 08:18:53;;;;;;;13.70;3.80;;;;;;;;;;5087763;28;20048;-73
2023/02/09 08:21:27;;;;;;;6.78;3.75;;;;;;;;;;5087408;28;20518;-74
2023/02/09 08:23:59;;;;;;;8.27;3.75;;;;;;;;;;5087722;28;20040;-76
2023/02/09 08:26:40;;;;;;;11.38;4.35;;;;;;;;;;5087203;28;20060;-77
2023/02/09 08:29:12;;;;;;;9.20;3.45;;;;;;;;;;5087342;28;20050;-77
2023/02/09 08:31:42;;;;;;;9.52;4.38;;;;;;;;;;5086777;28;20047;-77
2023/02/09 08:34:14;;;;;;;8.40;4.32;;;;;;;;;;5087150;28;20051;-74
2023/02/09 08:37:10;;;;;;;8.65;4.38;;;;;;;;;;5086455;28;20122;-74
2023/02/09 08:39:40;;;;;;;7.78;4.40;;;;;;;;;;5083759;28;20556;-76
2023/02/09 08:42:13;;;;;;;6.85;3.78;;;;;;;;;;5069023;28;20541;-75
2023/02/09 08:44:44;;;;;;;7.50;3.80;;;;;;;;;;5087486;28;20044;-75
2023/02/09 08:47:14;;;;;;;11.07;3.75;;;;;;;;;;5087202;28;20056;-75
2023/02/09 08:49:45;;;;;;;9.65;4.15;;;;;;;;;;5069048;28;20048;-78
2023/02/09 08:52:14;;;;;;;10.85;3.95;;;;;;;;;;5069512;28;20423;-77
2023/02/09 08:54:44;;;;;;;10.65;4.60;;;;;;;;;;5086462;28;20059;-76
2023/02/09 08:57:14;;;;;;;8.93;4.68;;;;;;;;;;5085728;28;20056;-86
2023/02/09 08:59:46;;;;;;;10.25;4.80;;;;;;;;;;5086669;28;20039;-77
2023/02/09 09:02:16;;;;;;;13.85;5.18;;;;;;;;;;5068080;28;20055;-78
2023/02/09 09:04:47;;;;;;;13.57;5.32;;;;;;;;;;5087240;28;20078;-76
2023/02/09 09:07:27;;;;;;;11.35;4.63;;;;;;;;;;5068776;28;20056;-76
2023/02/09 09:09:57;;;;;;;9.70;4.57;;;;;;;;;;5086687;28;20040;-76
2023/02/09 09:12:29;;;;;;;8.80;4.10;;;;;;;;;;5086782;28;20055;-77
2023/02/09 09:14:59;;;;;;;11.88;4.25;;;;;;;;;;5086863;28;20066;-77
2023/02/09 09:17:29;;;;;;;12.25;4.13;;;;;;;;;;5087758;28;20044;-77
2023/02/09 09:19:59;;;;;;;8.65;4.00;;;;;;;;;;5090439;28;20519;-77
2023/02/09 09:22:31;;;;;;;11.93;3.80;;;;;;;;;;5091122;28;20044;-79
2023/02/09 09:25:01;;;;;;;12.68;4.20;;;;;;;;;;5090669;28;20044;-77
2023/02/09 09:27:33;;;;;;;9.18;5.03;;;;;;;;;;5090950;28;20059;-76
2023/02/09 09:30:05;;;;;;;11.93;4.50;;;;;;;;;;5091173;28;20048;-77
2023/02/09 09:32:35;;;;;;;9.98;4.82;;;;;;;;;;5091382;28;20052;-76
2023/02/09 09:35:07;;;;;;;14.35;4.85;;;;;;;;;;5090437;28;20044;-77
2023/02/09 09:37:37;;;;;;;9.45;3.70;;;;;;;;;;5090160;28;20636;-76
2023/02/09 09:40:11;;;;;;;5.57;2.75;;;;;;;;;;5090340;28;20153;-77
2023/02/09 09:42:46;;;;;;;5.45;2.83;;;;;;;;;;5090444;28;20078;-76
2023/02/09 09:45:22;;;;;;;8.70;2.80;;;;;;;;;;5071948;28;20052;-76
2023/02/09 09:48:02;;;;;;;10.82;2.83;;;;;;;;;;5090845;28;20044;-76
2023/02/09 09:50:38;;;;;;;8.35;2.28;;;;;;;;;;5071828;28;20056;-83
2023/02/09 09:53:32;;;;;;;10.07;2.75;;;;;;;;;;5090672;28;20514;-78
2023/02/09 09:56:08;;;;;;;7.78;1.83;;;;;;;;;;5091036;28;20043;-78
2023/02/09 09:58:42;;;;;;;14.70;2.50;;;;;;;;;;5090123;28;20051;-76
2023/02/09 10:01:18;;;;;;;7.70;1.98;;;;;;;;;;5090452;28;20056;-78
2023/02/09 10:04:00;;;;;;;6.88;2.10;;;;;;;;;;5090467;28;20051;-78
2023/02/09 10:06:31;;;;;;;9.20;2.20;;;;;;;;;;5089913;28;20044;-77
2023/02/09 10:09:26;;;;;;;9.68;2.17;;;;;;;;;;5090499;28;20047;-76
2023/02/09 10:12:34;;;;;;;7.65;2.03;;;;;;;;;;5090312;28;20047;-77
2023/02/09 10:15:26;;;;;;;4.25;1.70;;;;;;;;;;5071298;28;20048;-77
2023/02/09 10:17:58;;;;;;;7.43;2.85;;;;;;;;;;5090059;28;20044;-78
2023/02/09 10:20:49;;;;;;;9.10;2.22;;;;;;;;;;5090113;28;20047;-79
2023/02/09 10:23:36;;;;;;;11.70;2.40;;;;;;;;;;5090063;28;20067;-77
2023/02/09 10:26:07;;;;;;;9.52;3.92;;;;;;;;;;5101435;28;20113;-77
2023/02/09 10:28:43;;;;;;;9.50;2.97;;;;;;;;;;5110045;28;20055;-77
2023/02/09 10:31:25;;;;;;;6.05;2.22;;;;;;;;;;5110495;28;20039;-76
2023/02/09 10:34:29;;;;;;;8.20;2.47;;;;;;;;;;5090285;28;20064;-76
2023/02/09 10:37:26;;;;;;;9.38;2.30;;;;;;;;;;5091126;28;20391;-77
2023/02/09 10:40:18;;;;;;;9.07;2.20;;;;;;;;;;5110136;28;20054;-76
2023/02/09 10:43:34;;;;;;;10.95;3.38;;;;;;;;;;5109267;28;20052;-76
2023/02/09 10:46:16;;;;;;;6.60;2.75;;;;;;;;;;5096888;28;20048;-77
2023/02/09 10:48:49;;;;;;;11.95;2.80;;;;;;;;;;5109622;28;20044;-76
2023/02/09 10:51:32;;;;;;;8.00;2.10;;;;;;;;;;5100421;28;20048;-77
2023/02/09 10:54:08;;;;;;;5.60;2.30;;;;;;;;;;5108363;28;20043;-76
2023/02/09 10:56:47;;;;;;;7.47;2.45;;;;;;;;;;5090767;28;20054;-77
2023/02/09 10:59:24;;;;;;;4.30;2.00;;;;;;;;;;5105131;28;20047;-76
2023/02/09 11:02:00;;;;;;;9.25;2.65;;;;;;;;;;5098178;28;20047;-77
2023/02/09 11:04:39;;;;;;;12.55;2.42;;;;;;;;;;5099376;28;20051;-77
2023/02/09 11:07:17;;;;;;;9.70;2.67;;;;;;;;;;5080137;28;20527;-77
2023/02/09 11:09:51;;;;;;;7.00;2.33;;;;;;;;;;5098404;28;20044;-75
2023/02/09 11:12:25;;;;;;;6.35;2.13;;;;;;;;;;5097805;28;20423;-76
2023/02/09 11:14:55;;;;;;;6.57;2.50;;;;;;;;;;5099939;28;20047;-76
2023/02/09 11:17:36;;;;;;;5.65;2.40;;;;;;;;;;5086193;28;20413;-76
2023/02/09 11:20:09;;;;;;;7.90;2.63;;;;;;;;;;5087507;28;20063;-76
2023/02/09 11:22:49;;;;;;;7.03;2.42;;;;;;;;;;5090401;28;20052;-75
2023/02/09 11:25:27;;;;;;;5.53;2.33;;;;;;;;;;5095221;28;20522;-80
2023/02/09 11:28:16;;;;;;;9.50;2.00;;;;;;;;;;5098085;28;20084;-77
2023/02/09 11:30:54;;;;;;;15.85;3.47;;;;;;;;;;5098231;28;20044;-78
2023/02/09 11:33:39;;;;;;;11.60;3.17;;;;;;;;;;5109018;28;20040;-82
2023/02/09 11:36:38;;;;;;;6.78;2.75;;;;;;;;;;5105744;28;20414;-77
2023/02/09 11:39:34;;;;;;;7.45;2.72;;;;;;;;;;5108865;28;20059;-77
2023/02/09 11:45:15;;;;;;;13.63;2.75;;;;;;;;;;5108731;28;20044;-77
2023/02/09 11:48:04;;;;;;;10.20;3.40;;;;;;;;;;5108126;28;20048;-76
2023/02/09 11:51:03;;;;;;;12.50;2.92;;;;;;;;;;5108767;28;20035;-76
2023/02/09 11:53:39;;;;;;;5.55;2.92;;;;;;;;;;5095747;28;20070;-77
2023/02/09 11:56:19;;;;;;;6.18;2.63;;;;;;;;;;5108944;28;20040;-77
2023/02/09 11:59:30;;;;;;;8.25;3.00;;;;;;;;;;5089952;28;20056;-77
2023/02/09 12:02:08;;;;;;;7.65;3.13;;;;;;;;;;5091994;28;20060;-80
2023/02/09 12:04:52;;;;;;;7.32;2.40;;;;;;;;;;5108435;28;20608;-79
2023/02/09 12:08:18;;;;;;;10.60;2.50;;;;;;;;;;5107716;28;20383;-76
2023/02/09 12:11:20;;;;;;;8.35;2.50;;;;;;;;;;5038989;28;20063;-81
2023/02/09 12:14:08;;;;;;;8.82;2.88;;;;;;;;;;5091477;28;20066;-78
2023/02/09 12:16:46;;;;;;;6.05;2.55;;;;;;;;;;5090132;28;20051;-77
2023/02/09 12:19:40;;;;;;;5.65;2.30;;;;;;;;;;5106641;28;20058;-78
2023/02/09 12:22:35;;;;;;;10.48;3.10;;;;;;;;;;5107481;28;20387;-77
2023/02/09 12:25:22;;;;;;;12.07;3.55;;;;;;;;;;5089933;28;20055;-77
2023/02/09 12:28:37;;;;;;;8.45;3.10;;;;;;;;;;5107381;28;20494;-77
2023/02/09 12:31:13;;;;;;;9.45;2.95;;;;;;;;;;5107867;28;20047;-79
2023/02/09 12:33:44;;;;;;;11.82;3.15;;;;;;;;;;5088934;28;20054;-78
2023/02/09 12:36:17;;;;;;;7.10;2.90;;;;;;;;;;5089002;28;20058;-76
2023/02/09 12:38:50;;;;;;;6.85;3.10;;;;;;;;;;5107490;28;20050;-76
2023/02/09 12:41:37;;;;;;;11.98;4.00;;;;;;;;;;5107332;28;20050;-80
2023/02/09 12:44:09;;;;;;;10.77;4.03;;;;;;;;;;5107661;28;20051;-76
2023/02/09 12:46:47;;;;;;;9.68;3.90;;;;;;;;;;5107333;28;20062;-79
2023/02/09 12:49:32;;;;;;;12.27;3.80;;;;;;;;;;5107538;28;20070;-77
2023/02/09 12:52:09;;;;;;;8.80;2.90;;;;;;;;;;5106554;28;20506;-77
2023/02/09 12:54:43;;;;;;;12.32;2.83;;;;;;;;;;5107173;28;20043;-79
2023/02/09 12:57:19;;;;;;;4.80;2.30;;;;;;;;;;5107000;28;20047;-80
2023/02/09 12:59:58;;;;;;;5.97;2.83;;;;;;;;;;5106910;28;20524;-78
2023/02/09 13:02:48;;;;;;;14.90;3.45;;;;;;;;;;5107008;28;20055;-78
2023/02/09 13:05:33;;;;;;;10.98;2.90;;;;;;;;;;5106995;28;20047;-78
2023/02/09 13:08:15;;;;;;;9.35;4.18;;;;;;;;;;5106991;28;20047;-78
2023/02/09 13:10:59;;;;;;;8.57;2.75;;;;;;;;;;5106900;28;20495;-80
2023/02/09 13:13:56;;;;;;;12.82;3.40;;;;;;;;;;5107630;28;20051;-76
2023/02/09 13:16:30;;;;;;;9.10;3.20;;;;;;;;;;5107006;28;20756;-78
2023/02/09 13:19:18;;;;;;;7.00;2.85;;;;;;;;;;5106862;28;20513;-77
2023/02/09 13:22:20;;;;;;;7.82;3.15;;;;;;;;;;5107097;28;20059;-80
2023/02/09 13:25:37;;;;;;;9.52;3.22;;;;;;;;;;5093833;28;20052;-77
2023/02/09 13:28:14;;;;;;;8.32;3.65;;;;;;;;;;5097399;28;20055;-79
2023/02/09 13:30:46;;;;;;;10.23;3.40;;;;;;;;;;5107705;28;20485;-77
2023/02/09 13:33:27;;;;;;;12.93;3.75;;;;;;;;;;5107056;28;20509;-77
2023/02/09 13:36:05;;;;;;;14.02;3.60;;;;;;;;;;5107102;28;20051;-79
2023/02/09 13:38:51;;;;;;;15.18;4.03;;;;;;;;;;5107052;28;20048;-77
2023/02/09 13:41:37;;;;;;;10.82;3.88;;;;;;;;;;5106532;28;20044;-81
2023/02/09 13:44:43;;;;;;;5.60;3.70;;;;;;;;;;5106493;28;20050;-80
2023/02/09 13:47:15;;;;;;;7.18;3.00;;;;;;;;;;5090078;28;20051;-78
2023/02/09 13:49:56;;;;;;;15.15;3.72;;;;;;;;;;5106523;28;20058;-78
2023/02/09 13:52:31;;;;;;;8.80;3.60;;;;;;;;;;5106841;28;20039;-79
2023/02/09 13:55:26;;;;;;;7.05;2.58;;;;;;;;;;5106647;28;20055;-78
2023/02/09 13:58:06;;;;;;;6.75;2.65;;;;;;;;;;5106600;28;20047;-79
2023/02/09 14:00:47;;;;;;;4.70;2.45;;;;;;;;;;5107422;28;20398;-78
2023/02/09 14:03:55;;;;;;;3.50;2.22;;;;;;;;;;5090941;28;20526;-81
2023/02/09 14:06:43;;;;;;;5.20;2.65;;;;;;;;;;5110576;28;20066;-80
2023/02/09 14:09:23;;;;;;;7.70;2.95;;;;;;;;;;5092641;28;20409;-77
2023/02/09 14:11:58;;;;;;;9.63;2.42;;;;;;;;;;5110525;28;20054;-78
2023/02/09 14:17:37;;;;;;;4.78;2.50;;;;;;;;;;5110733;28;20509;-80
2023/02/09 14:20:18;;;;;;;;;;;;;;;;;;5110441;28;20046;-77
2023/02/09 14:23:00;;;;;;;8.00;2.58;;;;;;;;;;5109989;28;19923;-79
2023/02/09 14:25:30;;;;;;;;;;;;;;;;;;5111461;28;20062;-78
2023/02/09 14:28:00;;;;;;;11.20;2.33;;;;;;;;;;5110183;28;19947;-78
2023/02/09 14:30:49;;;;;;;4.95;2.50;;;;;;;;;;5092257;28;20043;-79
2023/02/09 14:33:27;;;;;;;9.15;2.95;;;;;;;;;;5109872;28;20051;-81
2023/02/09 14:36:00;;;;;;;5.93;2.83;;;;;;;;;;5090807;28;20075;-78
2023/02/09 14:38:46;;;;;;;9.77;4.78;;;;;;;;;;5109839;28;20051;-77
2023/02/09 14:41:32;;;;;;;13.55;3.50;;;;;;;;;;5110319;28;20024;-79
2023/02/09 14:44:05;;;;;;;8.80;3.08;;;;;;;;;;5109335;28;20043;-76
2023/02/09 14:46:51;;;;;;;7.47;3.50;;;;;;;;;;5109797;28;20510;-76
2023/02/09 14:49:51;;;;;;;8.48;2.60;;;;;;;;;;5026927;28;20058;-76
2023/02/09 14:52:27;;;;;;;6.47;2.50;;;;;;;;;;5026308;28;20064;-78
2023/02/09 14:55:01;;;;;;;9.77;2.97;;;;;;;;;;5026386;28;20049;-78
2023/02/09 14:57:34;;;;;;;7.30;2.45;;;;;;;;;;5026464;28;20540;-77
2023/02/09 15:00:21;;;;;;;10.85;3.45;;;;;;;;;;5026175;28;20175;-76
2023/02/09 15:02:53;;;;;;;11.18;3.00;;;;;;;;;;5026231;28;20500;-76
2023/02/09 15:05:25;;;;;;;12.98;3.10;;;;;;;;;;5026068;28;20645;-78
2023/02/09 15:08:00;;;;;;;4.72;2.65;;;;;;;;;;5026512;28;20192;-78
2023/02/09 15:10:41;;;;;;;5.45;2.47;;;;;;;;;;5026529;28;20092;-78
2023/02/09 15:13:14;;;;;;;11.30;2.83;;;;;;;;;;5053423;28;20533;-78
2023/02/09 15:15:50;;;;;;;7.68;2.40;;;;;;;;;;5108664;28;20066;-77
2023/02/09 15:18:26;;;;;;;4.07;2.63;;;;;;;;;;5109135;28;20589;-77
2023/02/09 15:20:58;;;;;;;8.90;2.67;;;;;;;;;;5109554;28;20042;-78
2023/02/09 15:23:28;;;;;;;5.70;2.72;;;;;;;;;;5108457;28;20047;-78
2023/02/09 15:25:58;;;;;;;8.25;2.67;;;;;;;;;;5108465;28;20074;-76
2023/02/09 15:28:30;;;;;;;4.57;2.53;;;;;;;;;;5089604;28;20422;-78
2023/02/09 15:31:01;;;;;;;8.38;3.05;;;;;;;;;;5108937;28;20056;-75
2023/02/09 15:33:32;;;;;;;4.32;2.60;;;;;;;;;;5108620;28;20039;-79
2023/02/09 15:36:04;;;;;;;3.30;2.17;;;;;;;;;;5108260;28;20760;-76
2023/02/09 15:38:35;;;;;;;9.65;3.03;;;;;;;;;;5091953;28;20616;-76
2023/02/09 15:49:33;;;;;;;6.65;2.72;;;;;;;;;;5108503;28;20043;-77
2023/02/09 15:52:03;;;;;;;7.63;3.10;;;;;;;;;;5090850;28;20533;-76
2023/02/09 15:54:34;;;;;;;6.38;2.97;;;;;;;;;;5108447;28;20406;-77
2023/02/09 15:57:05;;;;;;;6.85;2.75;;;;;;;;;;5108424;28;20055;-77
2023/02/09 15:59:35;;;;;;;10.43;3.90;;;;;;;;;;5107997;28;20039;-75
2023/02/09 16:02:13;;;;;;;6.22;2.78;;;;;;;;;;5090151;28;20059;-77
2023/02/09 16:04:45;;;;;;;7.57;2.90;;;;;;;;;;5108532;28;20040;-80
2023/02/09 16:07:23;;;;;;;6.28;2.75;;;;;;;;;;5108598;28;20050;-79
2023/02/09 16:09:54;;;;;;;6.68;2.72;;;;;;;;;;5108121;28;20059;-79